^^
Saratoga-Weather Station Historical Data
Daily Summary for May 21, 2022 Units:  Both    English   Metric
Daily Weekly Monthly Yearly Custom
  High: Low: Average:
Temperature: 71.2 °F /  21.8 °C 51.3 °F /  10.7 °C 61.2 °F /  16.2 °C
Dew Point: 53.6 °F /  12 °C 48.4 °F /  9.1 °C 50.7 °F /  10.4 °C
Humidity: 91% 48% 71%
Wind Speed: 13mph /  20.9km/h - 3.3mph /  5.3km/h
Wind Gust: 13mph /  20.9km/h - -
Wind- - West
Pressure: 30.2 in /  1022.7 hPa 30.1 in /  1018.3 hPa -
Precipitation: 0 in /  0.0 mm    
Historical Graphs
 
 
Tabular Data for May 21, 2022
Time Temperature Dew Point Pressure Wind Wind Speed Wind Gust Humidity Rainfall Rate (Hourly) solar
00:04 56.8 °F /  13.8 °C 52.3 °F /  11.3 °C 30.2in /  1021.0hPa West 2mph /  3.2km/h 6mph /  9.7km/h 85% 0in /  0.0mm 0 W/m2
00:09 56.7 °F /  13.7 °C 52.2 °F /  11.2 °C 30.2in /  1021.0hPa West 2mph /  3.2km/h 8mph /  12.9km/h 85% 0in /  0.0mm 0 W/m2
00:14 56.5 °F /  13.6 °C 52.3 °F /  11.3 °C 30.2in /  1021.0hPa West 6.9mph /  11.1km/h 7mph /  11.3km/h 86% 0in /  0.0mm 0 W/m2
00:19 56.5 °F /  13.6 °C 52.3 °F /  11.3 °C 30.2in /  1021.0hPa West 2mph /  3.2km/h 5mph /  8km/h 86% 0in /  0.0mm 0 W/m2
00:24 56.3 °F /  13.5 °C 52.2 °F /  11.2 °C 30.2in /  1021.0hPa WNW 4mph /  6.4km/h 6mph /  9.7km/h 86% 0in /  0.0mm 0 W/m2
00:29 56.1 °F /  13.4 °C 52.3 °F /  11.3 °C 30.2in /  1021.0hPa WSW 4.9mph /  7.9km/h 5mph /  8km/h 87% 0in /  0.0mm 0 W/m2
00:34 55.9 °F /  13.3 °C 52.2 °F /  11.2 °C 30.2in /  1021.3hPa West 4mph /  6.4km/h 8mph /  12.9km/h 87% 0in /  0.0mm 0 W/m2
00:39 55.9 °F /  13.3 °C 52.2 °F /  11.2 °C 30.2in /  1021.3hPa West 6mph /  9.7km/h 7mph /  11.3km/h 87% 0in /  0.0mm 0 W/m2
00:44 55.8 °F /  13.2 °C 52 °F /  11.1 °C 30.2in /  1021.3hPa WSW 2.9mph /  4.7km/h 8mph /  12.9km/h 87% 0in /  0.0mm 0 W/m2
00:49 55.8 °F /  13.2 °C 52 °F /  11.1 °C 30.2in /  1021.3hPa West 4mph /  6.4km/h 9mph /  14.5km/h 87% 0in /  0.0mm 0 W/m2
00:54 55.9 °F /  13.3 °C 52.2 °F /  11.2 °C 30.2in /  1021.3hPa West 4mph /  6.4km/h 8mph /  12.9km/h 87% 0in /  0.0mm 0 W/m2
00:59 55.9 °F /  13.3 °C 52.2 °F /  11.2 °C 30.2in /  1021.3hPa SW 2.9mph /  4.7km/h 9mph /  14.5km/h 87% 0in /  0.0mm 0 W/m2
01:04 55.8 °F /  13.2 °C 52 °F /  11.1 °C 30.2in /  1021.3hPa WSW 4.9mph /  7.9km/h 7mph /  11.3km/h 87% 0in /  0.0mm 0 W/m2
01:09 55.6 °F /  13.1 °C 51.8 °F /  11 °C 30.2in /  1021.3hPa WSW 2.9mph /  4.7km/h 5mph /  8km/h 87% 0in /  0.0mm 0 W/m2
01:14 55.2 °F /  12.9 °C 51.4 °F /  10.8 °C 30.2in /  1021.3hPa WSW 2.9mph /  4.7km/h 8mph /  12.9km/h 87% 0in /  0.0mm 0 W/m2
01:19 55 °F /  12.8 °C 51.3 °F /  10.7 °C 30.2in /  1021.3hPa West 2mph /  3.2km/h 3mph /  4.8km/h 87% 0in /  0.0mm 0 W/m2
01:24 54.9 °F /  12.7 °C 51.1 °F /  10.6 °C 30.2in /  1021.3hPa West 0.9mph /  1.4km/h 6mph /  9.7km/h 87% 0in /  0.0mm 0 W/m2
01:29 54.7 °F /  12.6 °C 51.3 °F /  10.7 °C 30.2in /  1021.3hPa SW 2.9mph /  4.7km/h 6mph /  9.7km/h 88% 0in /  0.0mm 0 W/m2
01:34 54.3 °F /  12.4 °C 50.9 °F /  10.5 °C 30.2in /  1021.3hPa West 2mph /  3.2km/h 8mph /  12.9km/h 88% 0in /  0.0mm 0 W/m2
01:39 54.1 °F /  12.3 °C 50.7 °F /  10.4 °C 30.2in /  1021.3hPa West 2.9mph /  4.7km/h 7mph /  11.3km/h 88% 0in /  0.0mm 0 W/m2
01:44 54 °F /  12.2 °C 50.7 °F /  10.4 °C 30.2in /  1021.3hPa WSW 4mph /  6.4km/h 6mph /  9.7km/h 89% 0in /  0.0mm 0 W/m2
01:49 54 °F /  12.2 °C 50.7 °F /  10.4 °C 30.2in /  1021.7hPa West 2.9mph /  4.7km/h 7mph /  11.3km/h 89% 0in /  0.0mm 0 W/m2
01:54 53.8 °F /  12.1 °C 50.5 °F /  10.3 °C 30.2in /  1021.3hPa West 4mph /  6.4km/h 6mph /  9.7km/h 89% 0in /  0.0mm 0 W/m2
01:59 53.6 °F /  12 °C 50.4 °F /  10.2 °C 30.2in /  1021.3hPa WSW 2.9mph /  4.7km/h 4mph /  6.4km/h 89% 0in /  0.0mm 0 W/m2
02:04 53.4 °F /  11.9 °C 50.2 °F /  10.1 °C 30.2in /  1021.7hPa WSW 2.9mph /  4.7km/h 6mph /  9.7km/h 89% 0in /  0.0mm 0 W/m2
02:09 53.2 °F /  11.8 °C 50.4 °F /  10.2 °C 30.2in /  1021.7hPa WSW 2mph /  3.2km/h 4mph /  6.4km/h 90% 0in /  0.0mm 0 W/m2
02:14 53.2 °F /  11.8 °C 50.4 °F /  10.2 °C 30.2in /  1021.7hPa WNW 2mph /  3.2km/h 5mph /  8km/h 90% 0in /  0.0mm 0 W/m2
02:19 53.1 °F /  11.7 °C 50.2 °F /  10.1 °C 30.2in /  1021.7hPa West 2.9mph /  4.7km/h 8mph /  12.9km/h 90% 0in /  0.0mm 0 W/m2
02:24 53.1 °F /  11.7 °C 50.2 °F /  10.1 °C 30.2in /  1021.7hPa WNW 2mph /  3.2km/h 6mph /  9.7km/h 90% 0in /  0.0mm 0 W/m2
02:29 52.9 °F /  11.6 °C 50 °F /  10 °C 30.2in /  1021.7hPa West 4mph /  6.4km/h 8mph /  12.9km/h 90% 0in /  0.0mm 0 W/m2
02:34 52.9 °F /  11.6 °C 50 °F /  10 °C 30.2in /  1021.7hPa WSW 2.9mph /  4.7km/h 8mph /  12.9km/h 90% 0in /  0.0mm 0 W/m2
02:39 52.7 °F /  11.5 °C 49.8 °F /  9.9 °C 30.2in /  1021.7hPa WNW 4mph /  6.4km/h 7mph /  11.3km/h 90% 0in /  0.0mm 0 W/m2
02:44 52.5 °F /  11.4 °C 49.6 °F /  9.8 °C 30.2in /  1021.7hPa SW 2.9mph /  4.7km/h 12mph /  19.3km/h 90% 0in /  0.0mm 0 W/m2
02:49 52.5 °F /  11.4 °C 49.6 °F /  9.8 °C 30.2in /  1021.7hPa WNW 2.9mph /  4.7km/h 6mph /  9.7km/h 90% 0in /  0.0mm 0 W/m2
02:54 52.5 °F /  11.4 °C 49.6 °F /  9.8 °C 30.2in /  1021.7hPa NW 8.9mph /  14.3km/h 12mph /  19.3km/h 90% 0in /  0.0mm 0 W/m2
02:59 52.3 °F /  11.3 °C 49.5 °F /  9.7 °C 30.2in /  1022.0hPa West 2.9mph /  4.7km/h 8mph /  12.9km/h 90% 0in /  0.0mm 0 W/m2
03:04 52.3 °F /  11.3 °C 49.5 °F /  9.7 °C 30.2in /  1022.0hPa WNW 4mph /  6.4km/h 10mph /  16.1km/h 90% 0in /  0.0mm 0 W/m2
03:09 52.3 °F /  11.3 °C 49.5 °F /  9.7 °C 30.2in /  1021.7hPa West 4mph /  6.4km/h 7mph /  11.3km/h 90% 0in /  0.0mm 0 W/m2
03:14 52.2 °F /  11.2 °C 49.3 °F /  9.6 °C 30.2in /  1021.7hPa West 4mph /  6.4km/h 10mph /  16.1km/h 90% 0in /  0.0mm 0 W/m2
03:19 52.2 °F /  11.2 °C 49.3 °F /  9.6 °C 30.2in /  1021.7hPa WNW 4mph /  6.4km/h 6mph /  9.7km/h 90% 0in /  0.0mm 0 W/m2
03:24 52.2 °F /  11.2 °C 49.3 °F /  9.6 °C 30.2in /  1021.7hPa West 6mph /  9.7km/h 7mph /  11.3km/h 90% 0in /  0.0mm 0 W/m2
03:29 52.2 °F /  11.2 °C 49.3 °F /  9.6 °C 30.2in /  1021.7hPa West 4mph /  6.4km/h 13mph /  20.9km/h 90% 0in /  0.0mm 0 W/m2
03:34 52.2 °F /  11.2 °C 49.3 °F /  9.6 °C 30.2in /  1021.7hPa West 6mph /  9.7km/h 8mph /  12.9km/h 90% 0in /  0.0mm 0 W/m2
03:39 52.2 °F /  11.2 °C 49.3 °F /  9.6 °C 30.2in /  1021.7hPa WSW 4.9mph /  7.9km/h 8mph /  12.9km/h 90% 0in /  0.0mm 0 W/m2
03:44 52 °F /  11.1 °C 49.1 °F /  9.5 °C 30.2in /  1021.7hPa WNW 2.9mph /  4.7km/h 8mph /  12.9km/h 90% 0in /  0.0mm 0 W/m2
03:49 52 °F /  11.1 °C 49.5 °F /  9.7 °C 30.2in /  1022.0hPa WNW 2.9mph /  4.7km/h 8mph /  12.9km/h 91% 0in /  0.0mm 0 W/m2
03:54 52 °F /  11.1 °C 49.5 °F /  9.7 °C 30.2in /  1022.0hPa WSW 4mph /  6.4km/h 8mph /  12.9km/h 91% 0in /  0.0mm 0 W/m2
03:59 52 °F /  11.1 °C 49.5 °F /  9.7 °C 30.2in /  1022.0hPa WNW 4mph /  6.4km/h 8mph /  12.9km/h 91% 0in /  0.0mm 0 W/m2
04:04 52 °F /  11.1 °C 49.5 °F /  9.7 °C 30.2in /  1022.0hPa West 2.9mph /  4.7km/h 8mph /  12.9km/h 91% 0in /  0.0mm 0 W/m2
04:09 52 °F /  11.1 °C 49.5 °F /  9.7 °C 30.2in /  1022.0hPa NW 4.9mph /  7.9km/h 8mph /  12.9km/h 91% 0in /  0.0mm 0 W/m2
04:14 51.8 °F /  11 °C 49.3 °F /  9.6 °C 30.2in /  1022.0hPa WNW 2.9mph /  4.7km/h 7mph /  11.3km/h 91% 0in /  0.0mm 0 W/m2
04:19 51.8 °F /  11 °C 49.3 °F /  9.6 °C 30.2in /  1022.0hPa WNW 2mph /  3.2km/h 4mph /  6.4km/h 91% 0in /  0.0mm 0 W/m2
04:24 51.6 °F /  10.9 °C 49.1 °F /  9.5 °C 30.2in /  1022.0hPa WNW 2mph /  3.2km/h 6mph /  9.7km/h 91% 0in /  0.0mm 0 W/m2
04:29 51.4 °F /  10.8 °C 48.9 °F /  9.4 °C 30.2in /  1022.0hPa West 2.9mph /  4.7km/h 3mph /  4.8km/h 91% 0in /  0.0mm 0 W/m2
04:34 51.4 °F /  10.8 °C 48.9 °F /  9.4 °C 30.2in /  1022.0hPa WNW 2mph /  3.2km/h 3mph /  4.8km/h 91% 0in /  0.0mm 0 W/m2
04:39 51.4 °F /  10.8 °C 48.9 °F /  9.4 °C 30.2in /  1022.0hPa West 2.9mph /  4.7km/h 4mph /  6.4km/h 91% 0in /  0.0mm 0 W/m2
04:44 51.4 °F /  10.8 °C 48.6 °F /  9.2 °C 30.2in /  1022.0hPa NW 4.9mph /  7.9km/h 7mph /  11.3km/h 90% 0in /  0.0mm 0 W/m2
04:49 51.4 °F /  10.8 °C 48.6 °F /  9.2 °C 30.2in /  1021.7hPa WNW 2.9mph /  4.7km/h 4mph /  6.4km/h 90% 0in /  0.0mm 0 W/m2
04:54 51.4 °F /  10.8 °C 48.6 °F /  9.2 °C 30.2in /  1021.7hPa WNW 2.9mph /  4.7km/h 7mph /  11.3km/h 90% 0in /  0.0mm 0 W/m2
04:59 51.6 °F /  10.9 °C 48.7 °F /  9.3 °C 30.2in /  1021.7hPa West 2.9mph /  4.7km/h 7mph /  11.3km/h 90% 0in /  0.0mm 0 W/m2
05:04 51.6 °F /  10.9 °C 48.7 °F /  9.3 °C 30.2in /  1021.7hPa WNW 2.9mph /  4.7km/h 6mph /  9.7km/h 90% 0in /  0.0mm 0 W/m2
05:09 51.6 °F /  10.9 °C 48.6 °F /  9.2 °C 30.2in /  1021.7hPa WSW 4.9mph /  7.9km/h 6mph /  9.7km/h 89% 0in /  0.0mm 0 W/m2
05:14 51.6 °F /  10.9 °C 48.6 °F /  9.2 °C 30.2in /  1021.7hPa NW 4mph /  6.4km/h 8mph /  12.9km/h 89% 0in /  0.0mm 0 W/m2
05:19 51.6 °F /  10.9 °C 48.6 °F /  9.2 °C 30.2in /  1021.7hPa WSW 4mph /  6.4km/h 7mph /  11.3km/h 89% 0in /  0.0mm 0 W/m2
05:24 51.6 °F /  10.9 °C 48.6 °F /  9.2 °C 30.2in /  1022.0hPa WNW 4.9mph /  7.9km/h 8mph /  12.9km/h 89% 0in /  0.0mm 0 W/m2
05:29 51.6 °F /  10.9 °C 48.6 °F /  9.2 °C 30.2in /  1022.0hPa West 6mph /  9.7km/h 7mph /  11.3km/h 89% 0in /  0.0mm 0 W/m2
05:34 51.6 °F /  10.9 °C 48.6 °F /  9.2 °C 30.2in /  1022.0hPa SW 4.9mph /  7.9km/h 8mph /  12.9km/h 89% 0in /  0.0mm 0 W/m2
05:39 51.6 °F /  10.9 °C 48.6 °F /  9.2 °C 30.2in /  1022.0hPa West 6mph /  9.7km/h 8mph /  12.9km/h 89% 0in /  0.0mm 0 W/m2
05:44 51.6 °F /  10.9 °C 48.6 °F /  9.2 °C 30.2in /  1022.0hPa West 4mph /  6.4km/h 8mph /  12.9km/h 89% 0in /  0.0mm 0 W/m2
05:49 51.6 °F /  10.9 °C 48.6 °F /  9.2 °C 30.2in /  1022.0hPa WNW 2.9mph /  4.7km/h 6mph /  9.7km/h 89% 0in /  0.0mm 7 W/m2
05:54 51.6 °F /  10.9 °C 48.6 °F /  9.2 °C 30.2in /  1022.0hPa WNW 8.9mph /  14.3km/h 10mph /  16.1km/h 89% 0in /  0.0mm 11 W/m2
05:59 51.6 °F /  10.9 °C 48.6 °F /  9.2 °C 30.2in /  1022.0hPa WNW 2.9mph /  4.7km/h 5mph /  8km/h 89% 0in /  0.0mm 14 W/m2
06:04 51.4 °F /  10.8 °C 48.4 °F /  9.1 °C 30.2in /  1022.0hPa WNW 4mph /  6.4km/h 7mph /  11.3km/h 89% 0in /  0.0mm 16 W/m2
06:09 51.4 °F /  10.8 °C 48.6 °F /  9.2 °C 30.2in /  1022.0hPa WNW 4mph /  6.4km/h 5mph /  8km/h 90% 0in /  0.0mm 19 W/m2
06:14 51.3 °F /  10.7 °C 48.4 °F /  9.1 °C 30.2in /  1022.0hPa WNW 4mph /  6.4km/h 7mph /  11.3km/h 90% 0in /  0.0mm 19 W/m2
06:19 51.3 °F /  10.7 °C 48.4 °F /  9.1 °C 30.2in /  1022.0hPa WSW 4mph /  6.4km/h 7mph /  11.3km/h 90% 0in /  0.0mm 21 W/m2
06:24 51.3 °F /  10.7 °C 48.4 °F /  9.1 °C 30.2in /  1022.0hPa WSW 2.9mph /  4.7km/h 9mph /  14.5km/h 90% 0in /  0.0mm 23 W/m2
06:29 51.3 °F /  10.7 °C 48.4 °F /  9.1 °C 30.2in /  1022.0hPa NW 4.9mph /  7.9km/h 5mph /  8km/h 90% 0in /  0.0mm 30 W/m2
06:34 51.4 °F /  10.8 °C 48.6 °F /  9.2 °C 30.2in /  1022.4hPa WNW 4mph /  6.4km/h 6mph /  9.7km/h 90% 0in /  0.0mm 35 W/m2
06:39 51.4 °F /  10.8 °C 48.6 °F /  9.2 °C 30.2in /  1022.4hPa West 2mph /  3.2km/h 6mph /  9.7km/h 90% 0in /  0.0mm 39 W/m2
06:44 51.4 °F /  10.8 °C 48.9 °F /  9.4 °C 30.2in /  1022.0hPa NW 2mph /  3.2km/h 7mph /  11.3km/h 91% 0in /  0.0mm 39 W/m2
06:49 51.4 °F /  10.8 °C 48.9 °F /  9.4 °C 30.2in /  1022.0hPa West 2mph /  3.2km/h 4mph /  6.4km/h 91% 0in /  0.0mm 42 W/m2
06:54 51.4 °F /  10.8 °C 48.9 °F /  9.4 °C 30.2in /  1022.4hPa WNW 6mph /  9.7km/h 7mph /  11.3km/h 91% 0in /  0.0mm 56 W/m2
06:59 51.6 °F /  10.9 °C 49.1 °F /  9.5 °C 30.2in /  1022.4hPa West 2mph /  3.2km/h 5mph /  8km/h 91% 0in /  0.0mm 54 W/m2
07:04 52 °F /  11.1 °C 49.5 °F /  9.7 °C 30.2in /  1022.4hPa WNW 2mph /  3.2km/h 8mph /  12.9km/h 91% 0in /  0.0mm 46 W/m2
07:09 52.2 °F /  11.2 °C 49.3 °F /  9.6 °C 30.2in /  1022.4hPa North 2.9mph /  4.7km/h 4mph /  6.4km/h 90% 0in /  0.0mm 47 W/m2
07:14 52.3 °F /  11.3 °C 49.5 °F /  9.7 °C 30.2in /  1022.4hPa WSW 0.9mph /  1.4km/h 6mph /  9.7km/h 90% 0in /  0.0mm 128 W/m2
07:19 52.5 °F /  11.4 °C 49.6 °F /  9.8 °C 30.2in /  1022.4hPa WNW 2.9mph /  4.7km/h 8mph /  12.9km/h 90% 0in /  0.0mm 134 W/m2
07:24 52.9 °F /  11.6 °C 50 °F /  10 °C 30.2in /  1022.4hPa SW 2.9mph /  4.7km/h 4mph /  6.4km/h 90% 0in /  0.0mm 83 W/m2
07:29 53.1 °F /  11.7 °C 49.8 °F /  9.9 °C 30.2in /  1022.4hPa SW 4.9mph /  7.9km/h 7mph /  11.3km/h 89% 0in /  0.0mm 149 W/m2
07:34 53.4 °F /  11.9 °C 50.2 °F /  10.1 °C 30.2in /  1022.4hPa West 4mph /  6.4km/h 6mph /  9.7km/h 89% 0in /  0.0mm 186 W/m2
07:39 53.8 °F /  12.1 °C 50.4 °F /  10.2 °C 30.2in /  1022.4hPa West 2mph /  3.2km/h 4mph /  6.4km/h 88% 0in /  0.0mm 148 W/m2
07:45 54 °F /  12.2 °C 50.2 °F /  10.1 °C 30.2in /  1022.4hPa WSW 2mph /  3.2km/h 4mph /  6.4km/h 87% 0in /  0.0mm 243 W/m2
07:50 54.3 °F /  12.4 °C 50.5 °F /  10.3 °C 30.2in /  1022.4hPa Calm   4mph /  6.4km/h 87% 0in /  0.0mm 209 W/m2
07:55 54.7 °F /  12.6 °C 50.9 °F /  10.5 °C 30.2in /  1022.4hPa WNW 8.1mph /  13km/h 8mph /  12.9km/h 87% 0in /  0.0mm 262 W/m2
08:00 55 °F /  12.8 °C 50.9 °F /  10.5 °C 30.2in /  1022.4hPa WNW 2.9mph /  4.7km/h 6mph /  9.7km/h 86% 0in /  0.0mm 264 W/m2
08:05 55.4 °F /  13 °C 51.3 °F /  10.7 °C 30.2in /  1022.4hPa NNW 2mph /  3.2km/h 8mph /  12.9km/h 86% 0in /  0.0mm 246 W/m2
08:10 55.8 °F /  13.2 °C 51.3 °F /  10.7 °C 30.2in /  1022.4hPa WSW 2mph /  3.2km/h 4mph /  6.4km/h 85% 0in /  0.0mm 158 W/m2
08:15 56.1 °F /  13.4 °C 51.4 °F /  10.8 °C 30.2in /  1022.4hPa WNW 0.9mph /  1.4km/h 6mph /  9.7km/h 84% 0in /  0.0mm 100 W/m2
08:20 56.8 °F /  13.8 °C 52 °F /  11.1 °C 30.2in /  1022.4hPa NNW 0.9mph /  1.4km/h 2mph /  3.2km/h 84% 0in /  0.0mm 58 W/m2
08:25 57.2 °F /  14 °C 51.8 °F /  11 °C 30.2in /  1022.4hPa West 4mph /  6.4km/h 6mph /  9.7km/h 82% 0in /  0.0mm 58 W/m2
08:30 57.4 °F /  14.1 °C 52 °F /  11.1 °C 30.2in /  1022.4hPa WNW 0.9mph /  1.4km/h 4mph /  6.4km/h 82% 0in /  0.0mm 56 W/m2
08:35 57.4 °F /  14.1 °C 52 °F /  11.1 °C 30.2in /  1022.4hPa NW 0.9mph /  1.4km/h 4mph /  6.4km/h 82% 0in /  0.0mm 54 W/m2
08:40 57.6 °F /  14.2 °C 52.2 °F /  11.2 °C 30.2in /  1022.4hPa WSW 0.9mph /  1.4km/h 9mph /  14.5km/h 82% 0in /  0.0mm 56 W/m2
08:45 57.7 °F /  14.3 °C 52 °F /  11.1 °C 30.2in /  1022.4hPa NW 2mph /  3.2km/h 3mph /  4.8km/h 81% 0in /  0.0mm 54 W/m2
08:50 57.9 °F /  14.4 °C 51.8 °F /  11 °C 30.2in /  1022.7hPa NW 2.9mph /  4.7km/h 7mph /  11.3km/h 80% 0in /  0.0mm 56 W/m2
08:55 57.9 °F /  14.4 °C 51.8 °F /  11 °C 30.2in /  1022.7hPa NW 4mph /  6.4km/h 9mph /  14.5km/h 80% 0in /  0.0mm 54 W/m2
09:00 57.7 °F /  14.3 °C 51.6 °F /  10.9 °C 30.2in /  1022.7hPa West 6mph /  9.7km/h 10mph /  16.1km/h 80% 0in /  0.0mm 56 W/m2
09:05 57.7 °F /  14.3 °C 52.3 °F /  11.3 °C 30.2in /  1022.7hPa West 2.9mph /  4.7km/h 9mph /  14.5km/h 82% 0in /  0.0mm 84 W/m2
09:10 57.9 °F /  14.4 °C 52.2 °F /  11.2 °C 30.2in /  1022.7hPa WNW 0.9mph /  1.4km/h 6mph /  9.7km/h 81% 0in /  0.0mm 77 W/m2
09:15 58.5 °F /  14.7 °C 52.7 °F /  11.5 °C 30.2in /  1022.7hPa WNW 4mph /  6.4km/h 9mph /  14.5km/h 81% 0in /  0.0mm 63 W/m2
09:20 58.6 °F /  14.8 °C 52.5 °F /  11.4 °C 30.2in /  1022.7hPa West 4mph /  6.4km/h 7mph /  11.3km/h 80% 0in /  0.0mm 62 W/m2
09:25 58.6 °F /  14.8 °C 52.5 °F /  11.4 °C 30.2in /  1022.7hPa WNW 2.9mph /  4.7km/h 8mph /  12.9km/h 80% 0in /  0.0mm 91 W/m2
09:30 58.8 °F /  14.9 °C 52.7 °F /  11.5 °C 30.2in /  1022.7hPa SW 2mph /  3.2km/h 7mph /  11.3km/h 80% 0in /  0.0mm 148 W/m2
09:35 59.2 °F /  15.1 °C 52.7 °F /  11.5 °C 30.2in /  1022.7hPa NW 4.9mph /  7.9km/h 9mph /  14.5km/h 79% 0in /  0.0mm 141 W/m2
09:40 59.2 °F /  15.1 °C 52.7 °F /  11.5 °C 30.2in /  1022.7hPa SSW 6mph /  9.7km/h 8mph /  12.9km/h 79% 0in /  0.0mm 113 W/m2
09:45 59.2 °F /  15.1 °C 53.1 °F /  11.7 °C 30.2in /  1022.7hPa NW 2.9mph /  4.7km/h 8mph /  12.9km/h 80% 0in /  0.0mm 116 W/m2
09:50 59.4 °F /  15.2 °C 52.9 °F /  11.6 °C 30.2in /  1022.7hPa WNW 2mph /  3.2km/h 8mph /  12.9km/h 79% 0in /  0.0mm 123 W/m2
09:55 59.5 °F /  15.3 °C 52.7 °F /  11.5 °C 30.2in /  1022.7hPa NW 2.9mph /  4.7km/h 7mph /  11.3km/h 78% 0in /  0.0mm 146 W/m2
10:00 60.1 °F /  15.6 °C 53.2 °F /  11.8 °C 30.2in /  1022.7hPa WNW 0.9mph /  1.4km/h 7mph /  11.3km/h 78% 0in /  0.0mm 156 W/m2
10:05 60.6 °F /  15.9 °C 53.1 °F /  11.7 °C 30.2in /  1022.7hPa WNW 4.9mph /  7.9km/h 9mph /  14.5km/h 76% 0in /  0.0mm 156 W/m2
10:10 60.6 °F /  15.9 °C 52.7 °F /  11.5 °C 30.2in /  1022.7hPa WSW 2.9mph /  4.7km/h 9mph /  14.5km/h 75% 0in /  0.0mm 213 W/m2
10:15 60.8 °F /  16 °C 53.2 °F /  11.8 °C 30.2in /  1022.7hPa WNW 6mph /  9.7km/h 10mph /  16.1km/h 76% 0in /  0.0mm 392 W/m2
10:20 61.2 °F /  16.2 °C 53.2 °F /  11.8 °C 30.2in /  1022.7hPa WNW 4mph /  6.4km/h 8mph /  12.9km/h 75% 0in /  0.0mm 735 W/m2
10:25 61.5 °F /  16.4 °C 53.6 °F /  12 °C 30.2in /  1022.4hPa WNW 2.9mph /  4.7km/h 3mph /  4.8km/h 75% 0in /  0.0mm 587 W/m2
10:30 61.3 °F /  16.3 °C 52.7 °F /  11.5 °C 30.2in /  1022.4hPa WSW 2.9mph /  4.7km/h 6mph /  9.7km/h 73% 0in /  0.0mm 195 W/m2
10:35 61.3 °F /  16.3 °C 53.1 °F /  11.7 °C 30.2in /  1022.4hPa WSW 2.9mph /  4.7km/h 6mph /  9.7km/h 74% 0in /  0.0mm 513 W/m2
10:40 61.5 °F /  16.4 °C 53.2 °F /  11.8 °C 30.2in /  1022.4hPa SW 4mph /  6.4km/h 7mph /  11.3km/h 74% 0in /  0.0mm 513 W/m2
10:45 62.1 °F /  16.7 °C 52.9 °F /  11.6 °C 30.2in /  1022.4hPa WNW 4mph /  6.4km/h 7mph /  11.3km/h 72% 0in /  0.0mm 765 W/m2
10:50 62.1 °F /  16.7 °C 52.5 °F /  11.4 °C 30.2in /  1022.4hPa WNW 4.9mph /  7.9km/h 9mph /  14.5km/h 71% 0in /  0.0mm 715 W/m2
10:55 62.6 °F /  17 °C 52.7 °F /  11.5 °C 30.2in /  1022.4hPa WNW 8.9mph /  14.3km/h 9mph /  14.5km/h 70% 0in /  0.0mm 717 W/m2
11:00 62.8 °F /  17.1 °C 52.5 °F /  11.4 °C 30.2in /  1022.4hPa West 2.9mph /  4.7km/h 5mph /  8km/h 69% 0in /  0.0mm 701 W/m2
11:05 63 °F /  17.2 °C 52.7 °F /  11.5 °C 30.2in /  1022.4hPa West 0.9mph /  1.4km/h 3mph /  4.8km/h 69% 0in /  0.0mm 788 W/m2
11:10 63.5 °F /  17.5 °C 53.1 °F /  11.7 °C 30.2in /  1022.4hPa NW 2mph /  3.2km/h 5mph /  8km/h 69% 0in /  0.0mm 793 W/m2
11:15 63.3 °F /  17.4 °C 52.2 °F /  11.2 °C 30.2in /  1022.4hPa West 6mph /  9.7km/h 8mph /  12.9km/h 67% 0in /  0.0mm 146 W/m2
11:20 63.1 °F /  17.3 °C 52 °F /  11.1 °C 30.2in /  1022.4hPa North 4mph /  6.4km/h 6mph /  9.7km/h 67% 0in /  0.0mm 828 W/m2
11:25 63.5 °F /  17.5 °C 51.4 °F /  10.8 °C 30.2in /  1022.4hPa SW 6mph /  9.7km/h 8mph /  12.9km/h 65% 0in /  0.0mm 798 W/m2
11:30 63.3 °F /  17.4 °C 50.9 °F /  10.5 °C 30.2in /  1022.4hPa NNW 2.9mph /  4.7km/h 4mph /  6.4km/h 64% 0in /  0.0mm 805 W/m2
11:35 63.7 °F /  17.6 °C 52.2 °F /  11.2 °C 30.2in /  1022.4hPa WNW 4mph /  6.4km/h 9mph /  14.5km/h 66% 0in /  0.0mm 909 W/m2
11:40 64 °F /  17.8 °C 52.5 °F /  11.4 °C 30.2in /  1022.4hPa West 0.9mph /  1.4km/h 3mph /  4.8km/h 66% 0in /  0.0mm 835 W/m2
11:45 64.4 °F /  18 °C 51.6 °F /  10.9 °C 30.2in /  1022.4hPa WNW 2.9mph /  4.7km/h 10mph /  16.1km/h 63% 0in /  0.0mm 819 W/m2
11:50 64.6 °F /  18.1 °C 52.2 °F /  11.2 °C 30.2in /  1022.0hPa WNW 2.9mph /  4.7km/h 8mph /  12.9km/h 64% 0in /  0.0mm 236 W/m2
11:55 64.4 °F /  18 °C 51.6 °F /  10.9 °C 30.2in /  1022.4hPa WSW 2.9mph /  4.7km/h 11mph /  17.7km/h 63% 0in /  0.0mm 209 W/m2
12:00 64.6 °F /  18.1 °C 52.2 °F /  11.2 °C 30.2in /  1022.4hPa West 6.9mph /  11.1km/h 7mph /  11.3km/h 64% 0in /  0.0mm 916 W/m2
12:05 64.8 °F /  18.2 °C 51.1 °F /  10.6 °C 30.2in /  1022.4hPa WSW 4.9mph /  7.9km/h 11mph /  17.7km/h 61% 0in /  0.0mm 599 W/m2
12:10 64.6 °F /  18.1 °C 52.2 °F /  11.2 °C 30.2in /  1022.4hPa WNW 0.9mph /  1.4km/h 5mph /  8km/h 64% 0in /  0.0mm 181 W/m2
12:15 64.8 °F /  18.2 °C 52.3 °F /  11.3 °C 30.2in /  1022.4hPa WSW 8.1mph /  13km/h 9mph /  14.5km/h 64% 0in /  0.0mm 854 W/m2
12:20 65.1 °F /  18.4 °C 52.2 °F /  11.2 °C 30.2in /  1022.4hPa NNW 2.9mph /  4.7km/h 8mph /  12.9km/h 63% 0in /  0.0mm 944 W/m2
12:25 65.1 °F /  18.4 °C 50.4 °F /  10.2 °C 30.2in /  1022.0hPa NW 2.9mph /  4.7km/h 8mph /  12.9km/h 59% 0in /  0.0mm 849 W/m2
12:30 65.1 °F /  18.4 °C 50.9 °F /  10.5 °C 30.2in /  1022.0hPa West 6.9mph /  11.1km/h 12mph /  19.3km/h 60% 0in /  0.0mm 984 W/m2
12:35 65.3 °F /  18.5 °C 51.1 °F /  10.6 °C 30.2in /  1022.0hPa West 2mph /  3.2km/h 5mph /  8km/h 60% 0in /  0.0mm 1056 W/m2
12:40 65.8 °F /  18.8 °C 52 °F /  11.1 °C 30.2in /  1022.0hPa West 4mph /  6.4km/h 7mph /  11.3km/h 61% 0in /  0.0mm 232 W/m2
12:45 66 °F /  18.9 °C 51.3 °F /  10.7 °C 30.2in /  1022.0hPa SW 4.9mph /  7.9km/h 10mph /  16.1km/h 59% 0in /  0.0mm 944 W/m2
12:50 66 °F /  18.9 °C 50.9 °F /  10.5 °C 30.2in /  1022.0hPa WNW 4.9mph /  7.9km/h 9mph /  14.5km/h 58% 0in /  0.0mm 958 W/m2
12:55 66.6 °F /  19.2 °C 51.3 °F /  10.7 °C 30.2in /  1022.0hPa NNW 2.9mph /  4.7km/h 4mph /  6.4km/h 58% 0in /  0.0mm 946 W/m2
13:00 66.9 °F /  19.4 °C 51.6 °F /  10.9 °C 30.2in /  1022.0hPa WNW 2.9mph /  4.7km/h 8mph /  12.9km/h 58% 0in /  0.0mm 944 W/m2
13:05 67.3 °F /  19.6 °C 51.1 °F /  10.6 °C 30.2in /  1022.0hPa NW 4.9mph /  7.9km/h 12mph /  19.3km/h 56% 0in /  0.0mm 944 W/m2
13:10 66.9 °F /  19.4 °C 51.3 °F /  10.7 °C 30.2in /  1022.0hPa NNW 8.1mph /  13km/h 11mph /  17.7km/h 57% 0in /  0.0mm 970 W/m2
13:15 66.7 °F /  19.3 °C 51.4 °F /  10.8 °C 30.2in /  1022.0hPa WNW 4mph /  6.4km/h 12mph /  19.3km/h 58% 0in /  0.0mm 962 W/m2
13:20 66.9 °F /  19.4 °C 50.7 °F /  10.4 °C 30.2in /  1022.0hPa WNW 2mph /  3.2km/h 8mph /  12.9km/h 56% 0in /  0.0mm 902 W/m2
13:25 66.9 °F /  19.4 °C 50.7 °F /  10.4 °C 30.2in /  1022.0hPa WSW 2.9mph /  4.7km/h 7mph /  11.3km/h 56% 0in /  0.0mm 1013 W/m2
13:30 66.9 °F /  19.4 °C 50.7 °F /  10.4 °C 30.2in /  1021.7hPa WNW 2mph /  3.2km/h 10mph /  16.1km/h 56% 0in /  0.0mm 211 W/m2
13:35 67.1 °F /  19.5 °C 50.9 °F /  10.5 °C 30.2in /  1021.7hPa WSW 8.9mph /  14.3km/h 9mph /  14.5km/h 56% 0in /  0.0mm 990 W/m2
13:40 67.6 °F /  19.8 °C 50.9 °F /  10.5 °C 30.2in /  1021.7hPa WSW 4.9mph /  7.9km/h 12mph /  19.3km/h 55% 0in /  0.0mm 807 W/m2
13:45 67.5 °F /  19.7 °C 50.2 °F /  10.1 °C 30.2in /  1022.0hPa WSW 13mph /  20.9km/h 13mph /  20.9km/h 54% 0in /  0.0mm 976 W/m2
13:50 67.3 °F /  19.6 °C 50.5 °F /  10.3 °C 30.2in /  1022.0hPa WNW 4mph /  6.4km/h 11mph /  17.7km/h 55% 0in /  0.0mm 926 W/m2
13:55 67.5 °F /  19.7 °C 50.2 °F /  10.1 °C 30.2in /  1021.7hPa WNW 2mph /  3.2km/h 8mph /  12.9km/h 54% 0in /  0.0mm 965 W/m2
14:00 67.6 °F /  19.8 °C 50.9 °F /  10.5 °C 30.2in /  1022.0hPa West 8.9mph /  14.3km/h 12mph /  19.3km/h 55% 0in /  0.0mm 956 W/m2
14:05 67.8 °F /  19.9 °C 50.5 °F /  10.3 °C 30.2in /  1021.7hPa WSW 2mph /  3.2km/h 10mph /  16.1km/h 54% 0in /  0.0mm 953 W/m2
14:10 68 °F /  20 °C 50.2 °F /  10.1 °C 30.2in /  1022.0hPa NW 8.1mph /  13km/h 13mph /  20.9km/h 53% 0in /  0.0mm 965 W/m2
14:15 67.8 °F /  19.9 °C 50.5 °F /  10.3 °C 30.2in /  1021.7hPa NW 2.9mph /  4.7km/h 7mph /  11.3km/h 54% 0in /  0.0mm 875 W/m2
14:20 68.2 °F /  20.1 °C 50.4 °F /  10.2 °C 30.2in /  1021.7hPa WNW 8.9mph /  14.3km/h 13mph /  20.9km/h 53% 0in /  0.0mm 891 W/m2
14:25 67.8 °F /  19.9 °C 50.5 °F /  10.3 °C 30.2in /  1021.3hPa West 4mph /  6.4km/h 9mph /  14.5km/h 54% 0in /  0.0mm 911 W/m2
14:30 68.5 °F /  20.3 °C 50.7 °F /  10.4 °C 30.2in /  1021.3hPa West 2.9mph /  4.7km/h 12mph /  19.3km/h 53% 0in /  0.0mm 944 W/m2
14:35 68.7 °F /  20.4 °C 50.4 °F /  10.2 °C 30.2in /  1021.7hPa West 6mph /  9.7km/h 12mph /  19.3km/h 52% 0in /  0.0mm 452 W/m2
14:40 68.4 °F /  20.2 °C 50.5 °F /  10.3 °C 30.2in /  1021.3hPa NNW 2.9mph /  4.7km/h 9mph /  14.5km/h 53% 0in /  0.0mm 396 W/m2
14:45 68.2 °F /  20.1 °C 49.8 °F /  9.9 °C 30.2in /  1021.3hPa West 8.1mph /  13km/h 10mph /  16.1km/h 52% 0in /  0.0mm 297 W/m2
14:50 67.6 °F /  19.8 °C 50.4 °F /  10.2 °C 30.2in /  1021.3hPa West 2.9mph /  4.7km/h 6mph /  9.7km/h 54% 0in /  0.0mm 302 W/m2
14:55 67.6 °F /  19.8 °C 50.4 °F /  10.2 °C 30.2in /  1021.3hPa West 4mph /  6.4km/h 9mph /  14.5km/h 54% 0in /  0.0mm 410 W/m2
15:00 67.6 °F /  19.8 °C 50.9 °F /  10.5 °C 30.2in /  1021.3hPa WNW 2.9mph /  4.7km/h 6mph /  9.7km/h 55% 0in /  0.0mm 817 W/m2
15:05 68.2 °F /  20.1 °C 50.4 °F /  10.2 °C 30.2in /  1021.3hPa West 4mph /  6.4km/h 7mph /  11.3km/h 53% 0in /  0.0mm 364 W/m2
15:10 68.2 °F /  20.1 °C 49.8 °F /  9.9 °C 30.2in /  1021.3hPa West 4mph /  6.4km/h 9mph /  14.5km/h 52% 0in /  0.0mm 311 W/m2
15:15 68.2 °F /  20.1 °C 50.4 °F /  10.2 °C 30.2in /  1021.3hPa West 2mph /  3.2km/h 8mph /  12.9km/h 53% 0in /  0.0mm 480 W/m2
15:20 68 °F /  20 °C 50.7 °F /  10.4 °C 30.2in /  1021.3hPa West 2mph /  3.2km/h 8mph /  12.9km/h 54% 0in /  0.0mm 636 W/m2
15:25 68.5 °F /  20.3 °C 51.3 °F /  10.7 °C 30.2in /  1021.0hPa WNW 10.1mph /  16.3km/h 10mph /  16.1km/h 54% 0in /  0.0mm 919 W/m2
15:30 69.4 °F /  20.8 °C 51.6 °F /  10.9 °C 30.2in /  1021.0hPa WSW 4mph /  6.4km/h 8mph /  12.9km/h 53% 0in /  0.0mm 984 W/m2
15:35 69.6 °F /  20.9 °C 51.3 °F /  10.7 °C 30.2in /  1021.0hPa West 2.9mph /  4.7km/h 10mph /  16.1km/h 52% 0in /  0.0mm 930 W/m2
15:40 69.8 °F /  21 °C 50.9 °F /  10.5 °C 30.2in /  1021.0hPa West 4mph /  6.4km/h 9mph /  14.5km/h 51% 0in /  0.0mm 898 W/m2
15:45 70 °F /  21.1 °C 51.1 °F /  10.6 °C 30.2in /  1021.0hPa NW 4mph /  6.4km/h 7mph /  11.3km/h 51% 0in /  0.0mm 865 W/m2
15:50 70 °F /  21.1 °C 51.1 °F /  10.6 °C 30.2in /  1021.0hPa WSW 4mph /  6.4km/h 11mph /  17.7km/h 51% 0in /  0.0mm 837 W/m2
15:55 70.3 °F /  21.3 °C 51.4 °F /  10.8 °C 30.1in /  1020.7hPa West 2mph /  3.2km/h 9mph /  14.5km/h 51% 0in /  0.0mm 691 W/m2
16:00 70.3 °F /  21.3 °C 50.9 °F /  10.5 °C 30.1in /  1020.7hPa WNW 4mph /  6.4km/h 9mph /  14.5km/h 50% 0in /  0.0mm 791 W/m2
16:05 70.5 °F /  21.4 °C 50.4 °F /  10.2 °C 30.1in /  1020.7hPa NNW 6mph /  9.7km/h 10mph /  16.1km/h 49% 0in /  0.0mm 817 W/m2
16:10 70.5 °F /  21.4 °C 50.9 °F /  10.5 °C 30.1in /  1020.7hPa West 2.9mph /  4.7km/h 10mph /  16.1km/h 50% 0in /  0.0mm 784 W/m2
16:15 70.9 °F /  21.6 °C 50.7 °F /  10.4 °C 30.1in /  1020.3hPa NNE 2mph /  3.2km/h 7mph /  11.3km/h 49% 0in /  0.0mm 786 W/m2
16:20 70.7 °F /  21.5 °C 51.1 °F /  10.6 °C 30.1in /  1020.7hPa ESE 2.9mph /  4.7km/h 8mph /  12.9km/h 50% 0in /  0.0mm 659 W/m2
16:25 70.5 °F /  21.4 °C 50.9 °F /  10.5 °C 30.1in /  1020.3hPa WSW 4.9mph /  7.9km/h 8mph /  12.9km/h 50% 0in /  0.0mm 756 W/m2
16:30 70.5 °F /  21.4 °C 50.9 °F /  10.5 °C 30.1in /  1020.3hPa NNW 4.9mph /  7.9km/h 6mph /  9.7km/h 50% 0in /  0.0mm 751 W/m2
16:35 70.5 °F /  21.4 °C 50.4 °F /  10.2 °C 30.1in /  1020.3hPa NW 2.9mph /  4.7km/h 11mph /  17.7km/h 49% 0in /  0.0mm 726 W/m2
16:40 70.7 °F /  21.5 °C 50 °F /  10 °C 30.1in /  1020.3hPa West 8.9mph /  14.3km/h 9mph /  14.5km/h 48% 0in /  0.0mm 770 W/m2
16:45 70.3 °F /  21.3 °C 50.4 °F /  10.2 °C 30.1in /  1020.3hPa NNW 2mph /  3.2km/h 4mph /  6.4km/h 49% 0in /  0.0mm 649 W/m2
16:50 70.5 °F /  21.4 °C 50.4 °F /  10.2 °C 30.1in /  1020.0hPa NNW 8.1mph /  13km/h 9mph /  14.5km/h 49% 0in /  0.0mm 606 W/m2
16:55 70.5 °F /  21.4 °C 50.4 °F /  10.2 °C 30.1in /  1020.0hPa WNW 8.9mph /  14.3km/h 10mph /  16.1km/h 49% 0in /  0.0mm 610 W/m2
17:00 70.3 °F /  21.3 °C 50.9 °F /  10.5 °C 30.1in /  1020.0hPa WSW 2.9mph /  4.7km/h 7mph /  11.3km/h 50% 0in /  0.0mm 497 W/m2
17:05 70.2 °F /  21.2 °C 50.7 °F /  10.4 °C 30.1in /  1019.6hPa WNW 2mph /  3.2km/h 4mph /  6.4km/h 50% 0in /  0.0mm 485 W/m2
17:10 70.3 °F /  21.3 °C 50.9 °F /  10.5 °C 30.1in /  1019.6hPa West 6mph /  9.7km/h 10mph /  16.1km/h 50% 0in /  0.0mm 378 W/m2
17:15 70.2 °F /  21.2 °C 50.2 °F /  10.1 °C 30.1in /  1019.6hPa SW 4mph /  6.4km/h 8mph /  12.9km/h 49% 0in /  0.0mm 497 W/m2
17:20 70.3 °F /  21.3 °C 50.4 °F /  10.2 °C 30.1in /  1019.6hPa WNW 10.1mph /  16.3km/h 10mph /  16.1km/h 49% 0in /  0.0mm 436 W/m2
17:25 70.3 °F /  21.3 °C 50.4 °F /  10.2 °C 30.1in /  1019.6hPa West 2.9mph /  4.7km/h 9mph /  14.5km/h 49% 0in /  0.0mm 475 W/m2
17:30 70.3 °F /  21.3 °C 50.9 °F /  10.5 °C 30.1in /  1019.6hPa NW 2mph /  3.2km/h 6mph /  9.7km/h 50% 0in /  0.0mm 515 W/m2
17:35 70.3 °F /  21.3 °C 50.4 °F /  10.2 °C 30.1in /  1019.6hPa West 4mph /  6.4km/h 6mph /  9.7km/h 49% 0in /  0.0mm 403 W/m2
17:40 70.3 °F /  21.3 °C 50.9 °F /  10.5 °C 30.1in /  1019.6hPa West 6mph /  9.7km/h 9mph /  14.5km/h 50% 0in /  0.0mm 504 W/m2
17:45 70.5 °F /  21.4 °C 50.9 °F /  10.5 °C 30.1in /  1019.6hPa West 8.1mph /  13km/h 10mph /  16.1km/h 50% 0in /  0.0mm 429 W/m2
17:50 70.3 °F /  21.3 °C 50.9 °F /  10.5 °C 30.1in /  1019.6hPa WNW 4.9mph /  7.9km/h 7mph /  11.3km/h 50% 0in /  0.0mm 429 W/m2
17:55 70.3 °F /  21.3 °C 50.4 °F /  10.2 °C 30.1in /  1019.6hPa NNW 2mph /  3.2km/h 7mph /  11.3km/h 49% 0in /  0.0mm 457 W/m2
18:00 70.5 °F /  21.4 °C 50.4 °F /  10.2 °C 30.1in /  1019.3hPa WNW 2.9mph /  4.7km/h 7mph /  11.3km/h 49% 0in /  0.0mm 513 W/m2
18:05 70.9 °F /  21.6 °C 50.7 °F /  10.4 °C 30.1in /  1019.3hPa WNW 6mph /  9.7km/h 9mph /  14.5km/h 49% 0in /  0.0mm 503 W/m2
18:10 70.9 °F /  21.6 °C 50.7 °F /  10.4 °C 30.1in /  1019.3hPa West 4mph /  6.4km/h 9mph /  14.5km/h 49% 0in /  0.0mm 490 W/m2
18:15 71.1 °F /  21.7 °C 51.4 °F /  10.8 °C 30.1in /  1019.3hPa NW 2mph /  3.2km/h 8mph /  12.9km/h 50% 0in /  0.0mm 475 W/m2
18:20 71.2 °F /  21.8 °C 51.1 °F /  10.6 °C 30.1in /  1019.3hPa NW 2mph /  3.2km/h 4mph /  6.4km/h 49% 0in /  0.0mm 330 W/m2
18:25 71.2 °F /  21.8 °C 51.1 °F /  10.6 °C 30.1in /  1019.0hPa NW 6mph /  9.7km/h 6mph /  9.7km/h 49% 0in /  0.0mm 399 W/m2
18:30 71.2 °F /  21.8 °C 51.1 °F /  10.6 °C 30.1in /  1019.0hPa West 2mph /  3.2km/h 9mph /  14.5km/h 49% 0in /  0.0mm 346 W/m2
18:35 71.2 °F /  21.8 °C 51.1 °F /  10.6 °C 30.1in /  1019.0hPa WNW 0.9mph /  1.4km/h 8mph /  12.9km/h 49% 0in /  0.0mm 385 W/m2
18:40 71.1 °F /  21.7 °C 50.9 °F /  10.5 °C 30.1in /  1019.0hPa NNW 4.9mph /  7.9km/h 7mph /  11.3km/h 49% 0in /  0.0mm 376 W/m2
18:45 71.1 °F /  21.7 °C 50.4 °F /  10.2 °C 30.1in /  1019.0hPa NNW 0.9mph /  1.4km/h 5mph /  8km/h 48% 0in /  0.0mm 325 W/m2
18:50 71.1 °F /  21.7 °C 51.4 °F /  10.8 °C 30.1in /  1019.0hPa West 6.9mph /  11.1km/h 8mph /  12.9km/h 50% 0in /  0.0mm 88 W/m2
18:55 70.9 °F /  21.6 °C 51.3 °F /  10.7 °C 30.1in /  1019.0hPa West 4mph /  6.4km/h 7mph /  11.3km/h 50% 0in /  0.0mm 81 W/m2
19:00 70.7 °F /  21.5 °C 51.1 °F /  10.6 °C 30.1in /  1019.0hPa NW 4.9mph /  7.9km/h 7mph /  11.3km/h 50% 0in /  0.0mm 76 W/m2
19:05 70.7 °F /  21.5 °C 50.5 °F /  10.3 °C 30.1in /  1019.0hPa WNW 2mph /  3.2km/h 5mph /  8km/h 49% 0in /  0.0mm 72 W/m2
19:10 70.9 °F /  21.6 °C 51.3 °F /  10.7 °C 30.1in /  1018.6hPa WNW 2mph /  3.2km/h 6mph /  9.7km/h 50% 0in /  0.0mm 69 W/m2
19:15 70.7 °F /  21.5 °C 51.6 °F /  10.9 °C 30.1in /  1019.0hPa NNW 2.9mph /  4.7km/h 5mph /  8km/h 51% 0in /  0.0mm 67 W/m2
19:20 70.5 °F /  21.4 °C 50.9 °F /  10.5 °C 30.1in /  1019.0hPa WSW 2.9mph /  4.7km/h 4mph /  6.4km/h 50% 0in /  0.0mm 63 W/m2
19:25 70.2 °F /  21.2 °C 51.3 °F /  10.7 °C 30.1in /  1019.0hPa NW 4mph /  6.4km/h 8mph /  12.9km/h 51% 0in /  0.0mm 62 W/m2
19:30 69.6 °F /  20.9 °C 50.7 °F /  10.4 °C 30.1in /  1019.0hPa West 4mph /  6.4km/h 7mph /  11.3km/h 51% 0in /  0.0mm 60 W/m2
19:35 69.6 °F /  20.9 °C 51.3 °F /  10.7 °C 30.1in /  1019.0hPa WSW 4mph /  6.4km/h 6mph /  9.7km/h 52% 0in /  0.0mm 58 W/m2
19:40 69.4 °F /  20.8 °C 51.1 °F /  10.6 °C 30.1in /  1018.6hPa NW 4mph /  6.4km/h 4mph /  6.4km/h 52% 0in /  0.0mm 54 W/m2
19:45 69.4 °F /  20.8 °C 51.6 °F /  10.9 °C 30.1in /  1018.6hPa West 0.9mph /  1.4km/h 4mph /  6.4km/h 53% 0in /  0.0mm 53 W/m2
19:50 69.4 °F /  20.8 °C 51.6 °F /  10.9 °C 30.1in /  1018.6hPa NW 2mph /  3.2km/h 4mph /  6.4km/h 53% 0in /  0.0mm 49 W/m2
19:55 69.3 °F /  20.7 °C 51.4 °F /  10.8 °C 30.1in /  1018.6hPa West 2.9mph /  4.7km/h 7mph /  11.3km/h 53% 0in /  0.0mm 47 W/m2
20:00 68.9 °F /  20.5 °C 51.1 °F /  10.6 °C 30.1in /  1018.6hPa West 4mph /  6.4km/h 4mph /  6.4km/h 53% 0in /  0.0mm 44 W/m2
20:06 68.5 °F /  20.3 °C 51.3 °F /  10.7 °C 30.1in /  1018.6hPa WSW 0.9mph /  1.4km/h 3mph /  4.8km/h 54% 0in /  0.0mm 42 W/m2
20:11 68.4 °F /  20.2 °C 51.1 °F /  10.6 °C 30.1in /  1018.3hPa West 2.9mph /  4.7km/h 5mph /  8km/h 54% 0in /  0.0mm 40 W/m2
20:16 68.2 °F /  20.1 °C 51.4 °F /  10.8 °C 30.1in /  1018.3hPa WSW 0.9mph /  1.4km/h 6mph /  9.7km/h 55% 0in /  0.0mm 37 W/m2
20:21 67.8 °F /  19.9 °C 51.1 °F /  10.6 °C 30.1in /  1018.3hPa West 2.9mph /  4.7km/h 4mph /  6.4km/h 55% 0in /  0.0mm 35 W/m2
20:26 67.5 °F /  19.7 °C 51.6 °F /  10.9 °C 30.1in /  1018.3hPa West 2.9mph /  4.7km/h 4mph /  6.4km/h 57% 0in /  0.0mm 33 W/m2
20:31 67.3 °F /  19.6 °C 51.4 °F /  10.8 °C 30.1in /  1018.3hPa West 2.9mph /  4.7km/h 6mph /  9.7km/h 57% 0in /  0.0mm 32 W/m2
20:36 66.9 °F /  19.4 °C 51.3 °F /  10.7 °C 30.1in /  1018.3hPa West 2.9mph /  4.7km/h 4mph /  6.4km/h 57% 0in /  0.0mm 30 W/m2
20:41 66.9 °F /  19.4 °C 51.3 °F /  10.7 °C 30.1in /  1018.6hPa WNW 2mph /  3.2km/h 5mph /  8km/h 57% 0in /  0.0mm 26 W/m2
20:46 66.7 °F /  19.3 °C 51.1 °F /  10.6 °C 30.1in /  1018.3hPa West 0.9mph /  1.4km/h 4mph /  6.4km/h 57% 0in /  0.0mm 25 W/m2
20:51 66.7 °F /  19.3 °C 51.1 °F /  10.6 °C 30.1in /  1018.3hPa NW 2mph /  3.2km/h 5mph /  8km/h 57% 0in /  0.0mm 25 W/m2
20:56 66.6 °F /  19.2 °C 51.8 °F /  11 °C 30.1in /  1018.3hPa WNW 2mph /  3.2km/h 3mph /  4.8km/h 59% 0in /  0.0mm 23 W/m2
21:01 66 °F /  18.9 °C 51.8 °F /  11 °C 30.1in /  1018.3hPa West 2mph /  3.2km/h 2mph /  3.2km/h 60% 0in /  0.0mm 14 W/m2
21:06 65.7 °F /  18.7 °C 51.8 °F /  11 °C 30.1in /  1018.3hPa West 0.9mph /  1.4km/h 3mph /  4.8km/h 61% 0in /  0.0mm 11 W/m2
21:11 65.1 °F /  18.4 °C 51.3 °F /  10.7 °C 30.1in /  1018.3hPa West 2mph /  3.2km/h 2mph /  3.2km/h 61% 0in /  0.0mm 9 W/m2
21:16 64.8 °F /  18.2 °C 51.4 °F /  10.8 °C 30.1in /  1018.3hPa Calm   2mph /  3.2km/h 62% 0in /  0.0mm 5 W/m2
21:21 64.4 °F /  18 °C 51.6 °F /  10.9 °C 30.1in /  1018.3hPa Calm   1mph /  1.6km/h 63% 0in /  0.0mm 0 W/m2
21:26 64 °F /  17.8 °C 51.6 °F /  10.9 °C 30.1in /  1018.6hPa Calm   2mph /  3.2km/h 64% 0in /  0.0mm 0 W/m2
21:31 63.7 °F /  17.6 °C 51.6 °F /  10.9 °C 30.1in /  1018.6hPa Calm   1mph /  1.6km/h 65% 0in /  0.0mm 0 W/m2
21:36 63.1 °F /  17.3 °C 51.6 °F /  10.9 °C 30.1in /  1018.6hPa Calm   2mph /  3.2km/h 66% 0in /  0.0mm 0 W/m2
21:41 62.8 °F /  17.1 °C 51.6 °F /  10.9 °C 30.1in /  1018.6hPa Calm   2mph /  3.2km/h 67% 0in /  0.0mm 0 W/m2
21:46 62.2 °F /  16.8 °C 51.6 °F /  10.9 °C 30.1in /  1018.6hPa Calm     68% 0in /  0.0mm 0 W/m2
21:51 62.1 °F /  16.7 °C 51.4 °F /  10.8 °C 30.1in /  1018.6hPa West 0.9mph /  1.4km/h 2mph /  3.2km/h 68% 0in /  0.0mm 0 W/m2
21:56 61.5 °F /  16.4 °C 51.3 °F /  10.7 °C 30.1in /  1018.6hPa Calm   1mph /  1.6km/h 69% 0in /  0.0mm 0 W/m2
22:01 61.3 °F /  16.3 °C 51.1 °F /  10.6 °C 30.1in /  1018.6hPa West 0.9mph /  1.4km/h 2mph /  3.2km/h 69% 0in /  0.0mm 0 W/m2
22:06 61.2 °F /  16.2 °C 50.5 °F /  10.3 °C 30.1in /  1018.6hPa Calm   3mph /  4.8km/h 68% 0in /  0.0mm 0 W/m2
22:11 61.2 °F /  16.2 °C 50.9 °F /  10.5 °C 30.1in /  1018.6hPa West 0.9mph /  1.4km/h 1mph /  1.6km/h 69% 0in /  0.0mm 0 W/m2
22:16 61 °F /  16.1 °C 50.7 °F /  10.4 °C 30.1in /  1018.6hPa Calm   3mph /  4.8km/h 69% 0in /  0.0mm 0 W/m2
22:21 60.8 °F /  16 °C 50.5 °F /  10.3 °C 30.1in /  1018.6hPa West 0.9mph /  1.4km/h 2mph /  3.2km/h 69% 0in /  0.0mm 0 W/m2
22:26 60.6 °F /  15.9 °C 50.7 °F /  10.4 °C 30.1in /  1018.6hPa West 0.9mph /  1.4km/h 2mph /  3.2km/h 70% 0in /  0.0mm 0 W/m2
22:31 60.4 °F /  15.8 °C 50.5 °F /  10.3 °C 30.1in /  1018.6hPa West 0.9mph /  1.4km/h 2mph /  3.2km/h 70% 0in /  0.0mm 0 W/m2
22:36 60.3 °F /  15.7 °C 50.4 °F /  10.2 °C 30.1in /  1018.6hPa West 2mph /  3.2km/h 2mph /  3.2km/h 70% 0in /  0.0mm 0 W/m2
22:41 60.3 °F /  15.7 °C 50.4 °F /  10.2 °C 30.1in /  1019.0hPa Calm   3mph /  4.8km/h 70% 0in /  0.0mm 0 W/m2
22:46 60.1 °F /  15.6 °C 50.2 °F /  10.1 °C 30.1in /  1019.0hPa Calm   1mph /  1.6km/h 70% 0in /  0.0mm 0 W/m2
22:51 60.1 °F /  15.6 °C 50.2 °F /  10.1 °C 30.1in /  1018.6hPa WSW 0.9mph /  1.4km/h 2mph /  3.2km/h 70% 0in /  0.0mm 0 W/m2
22:56 60.1 °F /  15.6 °C 50.2 °F /  10.1 °C 30.1in /  1019.0hPa Calm   1mph /  1.6km/h 70% 0in /  0.0mm 0 W/m2
23:01 60.1 °F /  15.6 °C 50.2 °F /  10.1 °C 30.1in /  1019.0hPa WSW 2mph /  3.2km/h 2mph /  3.2km/h 70% 0in /  0.0mm 0 W/m2
23:06 59.7 °F /  15.4 °C 50 °F /  10 °C 30.1in /  1019.0hPa Calm   2mph /  3.2km/h 70% 0in /  0.0mm 0 W/m2
23:11 59.7 °F /  15.4 °C 50 °F /  10 °C 30.1in /  1018.6hPa SW 0.9mph /  1.4km/h 2mph /  3.2km/h 70% 0in /  0.0mm 0 W/m2
23:16 59.5 °F /  15.3 °C 50.2 °F /  10.1 °C 30.1in /  1019.0hPa Calm     71% 0in /  0.0mm 0 W/m2
23:21 59.4 °F /  15.2 °C 50 °F /  10 °C 30.1in /  1018.6hPa Calm     71% 0in /  0.0mm 0 W/m2
23:26 59.2 °F /  15.1 °C 49.8 °F /  9.9 °C 30.1in /  1018.6hPa Calm     71% 0in /  0.0mm 0 W/m2
23:31 59 °F /  15 °C 50 °F /  10 °C 30.1in /  1018.6hPa Calm     72% 0in /  0.0mm 0 W/m2
23:36 58.6 °F /  14.8 °C 50 °F /  10 °C 30.1in /  1018.3hPa Calm     73% 0in /  0.0mm 0 W/m2
23:41 58.5 °F /  14.7 °C 49.8 °F /  9.9 °C 30.1in /  1018.3hPa Calm     73% 0in /  0.0mm 0 W/m2
23:46 58.3 °F /  14.6 °C 50 °F /  10 °C 30.1in /  1018.6hPa Calm     74% 0in /  0.0mm 0 W/m2
23:51 57.9 °F /  14.4 °C 49.6 °F /  9.8 °C 30.1in /  1018.6hPa Calm     74% 0in /  0.0mm 0 W/m2
23:56 57.7 °F /  14.3 °C 49.5 °F /  9.7 °C 30.1in /  1018.6hPa Calm     74% 0in /  0.0mm 0 W/m2
Juneau County Weather
Compliments of Weather Underground - 4 mb